Time;durP1;ratioP1;P1;durP2;ratioP2;P2;SDS_P1;SDS_P2;PMS_P1;PMS_P2;Temp;Humidity;BMP_temperature;BMP_pressure;BME280_temperature;BME280_humidity;BME280_pressure;Samples;Min_cycle;Max_cycle;Signal;HPM_P1;HPM_P2
2022/04/17 00:01:10;;;;;;;11.30;7.37;;;5.90;99.90;;;;;;5000850;28;20219;-82
2022/04/17 00:03:38;;;;;;;11.10;7.13;;;5.90;99.90;;;;;;4996322;28;20219;-82
2022/04/17 00:06:06;;;;;;;12.00;7.30;;;5.90;99.90;;;;;;4994606;28;20563;-82
2022/04/17 00:08:33;;;;;;;10.80;7.47;;;5.80;99.90;;;;;;4994359;28;20690;-84
2022/04/17 00:11:01;;;;;;;10.87;7.60;;;5.80;99.90;;;;;;4992701;28;20271;-81
2022/04/17 00:13:28;;;;;;;10.90;6.90;;;5.70;99.90;;;;;;4994921;28;20213;-82
2022/04/17 00:15:56;;;;;;;12.50;7.37;;;5.70;99.90;;;;;;4994930;28;20642;-83
2022/04/17 00:18:23;;;;;;;10.37;7.43;;;5.70;99.90;;;;;;5002556;28;20224;-80
2022/04/17 00:20:49;;;;;;;10.57;6.80;;;5.60;99.90;;;;;;5001170;28;20775;-82
2022/04/17 00:23:16;;;;;;;12.10;7.23;;;5.60;99.90;;;;;;5000075;28;20238;-81
2022/04/17 00:25:44;;;;;;;11.33;7.00;;;5.60;99.90;;;;;;5002095;28;20325;-82
2022/04/17 00:28:11;;;;;;;10.50;6.77;;;5.50;99.90;;;;;;4995450;28;20210;-81
2022/04/17 00:30:38;;;;;;;9.90;7.40;;;5.50;99.90;;;;;;4997032;28;20267;-81
2022/04/17 00:33:05;;;;;;;12.60;7.87;;;5.50;99.90;;;;;;5001376;28;20248;-81
2022/04/17 00:35:31;;;;;;;12.37;7.80;;;5.40;99.90;;;;;;5001202;28;20293;-80
2022/04/17 00:37:58;;;;;;;10.43;7.17;;;5.40;99.90;;;;;;5000279;28;20229;-80
2022/04/17 00:40:25;;;;;;;10.17;6.97;;;5.40;99.90;;;;;;4997603;28;20305;-81
2022/04/17 00:42:53;;;;;;;9.70;7.20;;;5.30;99.90;;;;;;5002179;28;20287;-83
2022/04/17 00:45:20;;;;;;;11.00;7.03;;;5.30;99.90;;;;;;5005891;28;20233;-81
2022/04/17 00:47:46;;;;;;;8.47;7.07;;;5.20;99.90;;;;;;4996987;28;20213;-83
2022/04/17 00:50:13;;;;;;;9.90;6.73;;;5.20;99.90;;;;;;5003694;28;20215;-82
2022/04/17 00:52:42;;;;;;;10.40;6.40;;;5.10;99.90;;;;;;5003859;28;20247;-80
2022/04/17 00:55:09;;;;;;;7.80;6.17;;;5.10;99.90;;;;;;5003613;28;20202;-82
2022/04/17 00:57:37;;;;;;;12.20;7.53;;;5.10;99.90;;;;;;4997507;28;20299;-82
2022/04/17 01:00:05;;;;;;;11.23;7.53;;;5.00;99.90;;;;;;4998266;28;20296;-81
2022/04/17 01:02:32;;;;;;;16.10;8.03;;;5.00;99.90;;;;;;5014953;28;20277;-80
2022/04/17 01:04:59;;;;;;;13.07;7.20;;;5.00;99.90;;;;;;5004887;28;20240;-82
2022/04/17 01:07:26;;;;;;;10.23;7.00;;;4.90;99.90;;;;;;4996952;28;20315;-81
2022/04/17 01:09:53;;;;;;;9.87;6.93;;;4.90;99.90;;;;;;4998414;28;20312;-81
2022/04/17 01:12:20;;;;;;;15.73;8.00;;;4.80;99.90;;;;;;4994244;28;20875;-82
2022/04/17 01:14:48;;;;;;;13.30;7.13;;;4.90;99.90;;;;;;4992705;28;20302;-82
2022/04/17 01:17:15;;;;;;;12.60;7.47;;;4.80;99.90;;;;;;4999486;28;20954;-82
2022/04/17 01:19:42;;;;;;;11.37;6.93;;;4.80;99.90;;;;;;4996912;28;20707;-81
2022/04/17 01:22:11;;;;;;;9.67;7.03;;;4.80;99.90;;;;;;5003757;28;20220;-82
2022/04/17 01:27:25;;;;;;;11.47;7.00;;;4.70;99.90;;;;;;4997930;28;20210;-81
2022/04/17 01:29:53;;;;;;;10.73;7.13;;;4.40;99.90;;;;;;4999531;28;20751;-83
2022/04/17 01:32:21;;;;;;;10.83;7.30;;;4.70;99.90;;;;;;4995527;28;20644;-81
2022/04/17 01:34:47;;;;;;;12.73;7.83;;;4.70;99.90;;;;;;4999919;28;20327;-81
2022/04/17 01:37:15;;;;;;;12.70;8.33;;;4.60;99.90;;;;;;4997535;28;20215;-82
2022/04/17 01:39:42;;;;;;;11.23;7.47;;;4.50;99.90;;;;;;4999523;28;20251;-80
2022/04/17 01:42:11;;;;;;;12.17;8.10;;;4.50;99.90;;;;;;4999879;28;20268;-81
2022/04/17 01:44:38;;;;;;;13.10;8.57;;;4.40;99.90;;;;;;5001691;28;20366;-80
2022/04/17 01:47:05;;;;;;;15.20;8.57;;;4.40;99.90;;;;;;5003767;28;20238;-81
2022/04/17 01:49:32;;;;;;;12.37;7.93;;;3.60;99.90;;;;;;5004269;28;20223;-79
2022/04/17 01:52:00;;;;;;;14.33;8.17;;;4.40;99.90;;;;;;5002882;28;20228;-80
2022/04/17 01:54:28;;;;;;;11.23;8.17;;;4.40;99.90;;;;;;4996765;28;20626;-80
2022/04/17 01:56:55;;;;;;;13.00;7.73;;;4.30;99.90;;;;;;5007836;28;20198;-82
2022/04/17 01:59:24;;;;;;;13.77;8.10;;;4.20;99.90;;;;;;4998857;28;20284;-81
2022/04/17 02:01:51;;;;;;;12.20;8.10;;;4.30;99.90;;;;;;5002303;28;20194;-81
2022/04/17 02:04:18;;;;;;;13.20;8.53;;;4.00;99.90;;;;;;4997047;28;20234;-80
2022/04/17 02:06:47;;;;;;;18.20;8.93;;;4.10;99.90;;;;;;4999418;28;20632;-81
2022/04/17 02:09:16;;;;;;;12.17;8.00;;;4.10;99.90;;;;;;4991860;28;20211;-83
2022/04/17 02:11:45;;;;;;;13.37;7.73;;;4.00;99.90;;;;;;4999611;28;20229;-81
2022/04/17 02:14:12;;;;;;;14.40;8.17;;;4.00;99.90;;;;;;4998467;28;20740;-80
2022/04/17 02:16:40;;;;;;;16.50;8.50;;;4.00;99.90;;;;;;4998551;28;20219;-80
2022/04/17 02:19:07;;;;;;;13.33;8.30;;;3.90;99.90;;;;;;4998441;28;20754;-80
2022/04/17 02:21:34;;;;;;;11.23;7.60;;;3.90;99.90;;;;;;5003230;28;20333;-79
2022/04/17 02:24:01;;;;;;;13.57;7.73;;;3.80;99.90;;;;;;4998469;28;20237;-80
2022/04/17 02:26:28;;;;;;;16.10;8.50;;;3.80;99.90;;;;;;4999297;28;20235;-81
2022/04/17 02:28:56;;;;;;;13.73;8.10;;;3.80;99.90;;;;;;4998058;28;20207;-84
2022/04/17 02:31:24;;;;;;;12.90;8.00;;;3.70;99.90;;;;;;5010380;28;20726;-81
2022/04/17 02:33:51;;;;;;;10.50;7.47;;;3.70;99.90;;;;;;5002617;28;20222;-81
2022/04/17 02:36:20;;;;;;;14.77;8.07;;;3.70;99.90;;;;;;4993437;28;20219;-83
2022/04/17 02:38:47;;;;;;;13.97;8.57;;;3.60;99.90;;;;;;4999436;28;20257;-81
2022/04/17 02:41:14;;;;;;;13.80;8.17;;;3.40;99.90;;;;;;5008258;28;20261;-83
2022/04/17 02:43:41;;;;;;;12.73;7.23;;;3.70;99.90;;;;;;4995429;28;20574;-84
2022/04/17 02:46:08;;;;;;;14.83;8.53;;;3.50;99.90;;;;;;5001262;28;20229;-83
2022/04/17 02:48:36;;;;;;;12.10;7.73;;;3.50;99.90;;;;;;4996198;28;20612;-83
2022/04/17 02:51:03;;;;;;;13.17;8.10;;;3.50;99.90;;;;;;4995913;28;20214;-80
2022/04/17 02:53:32;;;;;;;13.00;7.97;;;3.50;99.90;;;;;;4996396;28;20389;-83
2022/04/17 02:56:00;;;;;;;12.67;7.73;;;3.40;99.90;;;;;;5001106;28;20238;-83
2022/04/17 02:58:27;;;;;;;13.13;8.37;;;3.40;99.90;;;;;;4991702;28;20230;-82
2022/04/17 03:06:25;;;;;;;14.93;8.33;;;3.30;99.90;;;;;;4996308;28;20705;-81
2022/04/17 03:08:53;;;;;;;12.27;7.50;;;3.20;99.90;;;;;;5000847;28;20659;-82
2022/04/17 03:11:20;;;;;;;13.27;8.20;;;3.20;99.90;;;;;;4995163;28;20225;-82
2022/04/17 03:13:48;;;;;;;12.90;8.00;;;3.20;99.90;;;;;;5000623;28;20238;-80
2022/04/17 03:16:15;;;;;;;13.93;7.93;;;3.20;99.90;;;;;;4992019;28;20221;-81
2022/04/17 03:18:43;;;;;;;12.10;7.97;;;3.10;99.90;;;;;;4996889;28;20214;-83
2022/04/17 03:21:10;;;;;;;11.53;7.70;;;3.10;99.90;;;;;;4996181;28;20630;-80
2022/04/17 03:23:37;;;;;;;12.10;7.83;;;3.10;99.90;;;;;;5003315;28;20237;-80
2022/04/17 03:26:04;;;;;;;13.90;7.97;;;3.10;99.90;;;;;;4995243;28;20230;-80
2022/04/17 03:28:31;;;;;;;14.23;7.77;;;3.10;99.90;;;;;;4998263;28;20405;-83
2022/04/17 03:30:58;;;;;;;9.60;7.27;;;3.00;99.90;;;;;;5000522;28;20660;-81
2022/04/17 03:33:27;;;;;;;12.07;8.27;;;3.00;99.90;;;;;;5002920;28;20210;-80
2022/04/17 03:35:55;;;;;;;13.80;8.87;;;3.20;99.90;;;;;;4998323;28;20584;-81
2022/04/17 03:38:22;;;;;;;11.40;7.70;;;3.00;99.90;;;;;;4995013;28;20301;-81
2022/04/17 03:40:49;;;;;;;13.83;8.57;;;2.90;99.90;;;;;;4998498;28;20217;-80
2022/04/17 03:43:16;;;;;;;15.07;7.93;;;2.90;99.90;;;;;;4998208;28;20221;-81
2022/04/17 03:45:47;;;;;;;13.63;8.10;;;2.90;99.90;;;;;;5000371;28;20248;-81
2022/04/17 03:48:18;;;;;;;13.77;8.10;;;2.90;99.90;;;;;;5001795;28;20210;-82
2022/04/17 03:50:45;;;;;;;12.70;7.73;;;2.90;99.90;;;;;;4997311;28;20204;-82
2022/04/17 03:53:12;;;;;;;12.93;7.87;;;2.80;99.90;;;;;;4996001;28;20268;-81
2022/04/17 03:55:39;;;;;;;15.13;8.77;;;2.80;99.90;;;;;;5003335;28;20280;-80
2022/04/17 03:58:06;;;;;;;13.43;8.30;;;2.80;99.90;;;;;;4991140;28;20221;-82
2022/04/17 04:00:33;;;;;;;13.10;8.30;;;2.80;99.90;;;;;;5017442;28;20241;-81
2022/04/17 04:03:04;;;;;;;13.40;8.33;;;2.70;99.90;;;;;;5018633;28;20673;-80
2022/04/17 04:05:34;;;;;;;11.10;7.53;;;2.70;99.90;;;;;;4998492;28;20282;-80
2022/04/17 04:08:02;;;;;;;14.40;7.77;;;2.70;99.90;;;;;;5005073;28;20225;-81
2022/04/17 04:10:28;;;;;;;11.23;7.87;;;2.70;99.90;;;;;;5000987;28;20382;-82
2022/04/17 04:12:56;;;;;;;11.57;8.33;;;2.70;99.90;;;;;;5002209;28;20244;-81
2022/04/17 04:15:23;;;;;;;13.77;7.77;;;2.60;99.90;;;;;;5003087;28;20672;-81
2022/04/17 04:17:50;;;;;;;13.73;8.30;;;2.60;99.90;;;;;;5001554;28;20221;-79
2022/04/17 04:20:16;;;;;;;14.13;9.10;;;2.60;99.90;;;;;;5007442;28;20230;-81
2022/04/17 04:22:43;;;;;;;14.43;8.70;;;2.60;99.90;;;;;;5007673;28;20317;-79
2022/04/17 04:25:10;;;;;;;14.93;8.40;;;2.50;99.90;;;;;;5005612;28;20345;-80
2022/04/17 04:30:22;;;;;;;11.30;7.70;;;2.50;99.90;;;;;;5000096;28;20296;-79
2022/04/17 04:32:53;;;;;;;13.97;7.90;;;2.50;99.90;;;;;;5006272;28;20291;-80
2022/04/17 04:35:22;;;;;;;12.00;7.33;;;2.50;99.90;;;;;;5008547;28;20229;-81
2022/04/17 04:37:49;;;;;;;13.90;8.20;;;2.50;99.90;;;;;;4995950;28;20275;-80
2022/04/17 04:40:16;;;;;;;13.43;8.27;;;2.40;99.90;;;;;;5003544;28;20356;-82
2022/04/17 04:42:46;;;;;;;18.60;8.60;;;2.40;99.90;;;;;;4996385;28;21033;-80
2022/04/17 04:47:59;;;;;;;15.83;8.30;;;2.40;99.90;;;;;;5013426;28;20255;-81
2022/04/17 04:50:27;;;;;;;13.30;9.27;;;2.40;99.90;;;;;;5001034;28;20330;-82
2022/04/17 04:52:54;;;;;;;13.57;9.27;;;2.40;99.90;;;;;;4998456;28;20247;-81
2022/04/17 04:55:20;;;;;;;14.13;8.63;;;2.40;99.90;;;;;;5008676;28;20200;-81
2022/04/17 04:57:48;;;;;;;13.83;9.13;;;2.40;99.90;;;;;;4999617;28;20736;-80
2022/04/17 05:00:15;;;;;;;15.80;9.07;;;2.40;99.90;;;;;;5000574;28;20264;-81
2022/04/17 05:02:42;;;;;;;15.27;8.80;;;2.40;99.90;;;;;;5005176;28;20201;-82
2022/04/17 05:05:10;;;;;;;15.50;9.20;;;2.40;99.90;;;;;;5000373;28;20232;-83
2022/04/17 05:07:38;;;;;;;14.17;8.60;;;2.40;99.90;;;;;;5003034;28;20253;-81
2022/04/17 05:10:05;;;;;;;11.67;8.23;;;2.50;99.90;;;;;;5002240;28;20719;-81
2022/04/17 05:12:33;;;;;;;12.10;8.50;;;2.50;99.90;;;;;;5004149;28;20220;-83
2022/04/17 05:15:00;;;;;;;15.67;9.13;;;2.50;99.90;;;;;;5002197;28;20340;-81
2022/04/17 05:17:27;;;;;;;13.40;8.77;;;2.40;99.90;;;;;;5003820;28;20293;-82
2022/04/17 05:19:54;;;;;;;13.53;8.43;;;2.50;99.90;;;;;;5011469;28;21333;-80
2022/04/17 05:22:30;;;;;;;15.43;8.90;;;2.50;99.90;;;;;;5011027;28;20726;-80
2022/04/17 05:24:58;;;;;;;11.87;7.60;;;2.60;99.90;;;;;;5010852;28;20628;-81
2022/04/17 05:27:26;;;;;;;12.13;8.27;;;2.60;99.90;;;;;;5003214;28;20293;-82
2022/04/17 05:29:53;;;;;;;13.57;8.83;;;2.60;99.90;;;;;;5006197;28;20203;-81
2022/04/17 05:32:20;;;;;;;15.53;8.70;;;2.70;99.90;;;;;;5001228;28;20225;-80
2022/04/17 05:34:47;;;;;;;14.73;9.13;;;2.70;99.90;;;;;;5004458;28;20238;-81
2022/04/17 05:37:13;;;;;;;16.87;9.10;;;2.70;99.90;;;;;;5006647;28;20229;-81
2022/04/17 05:39:40;;;;;;;16.80;9.57;;;2.70;99.90;;;;;;5001196;28;20205;-81
2022/04/17 05:42:08;;;;;;;17.73;9.97;;;2.80;99.90;;;;;;5003579;28;20688;-81
2022/04/17 05:44:37;;;;;;;18.43;10.30;;;2.80;99.90;;;;;;5001708;28;20255;-81
2022/04/17 05:47:04;;;;;;;18.27;10.27;;;2.80;99.90;;;;;;5006969;28;20708;-81
2022/04/17 05:49:31;;;;;;;14.17;9.60;;;2.90;99.90;;;;;;4998589;28;20233;-81
2022/04/17 05:51:58;;;;;;;14.70;9.73;;;2.90;99.90;;;;;;5000302;28;20319;-81
2022/04/17 05:54:25;;;;;;;13.63;9.87;;;3.00;99.90;;;;;;5003724;28;20236;-80
2022/04/17 05:56:52;;;;;;;19.27;10.13;;;3.00;99.90;;;;;;5006538;28;20253;-81
2022/04/17 05:59:19;;;;;;;14.60;9.33;;;3.10;99.90;;;;;;5003319;28;20203;-79
2022/04/17 06:01:46;;;;;;;11.80;9.13;;;3.10;99.90;;;;;;5006567;28;20203;-81
2022/04/17 06:04:14;;;;;;;17.13;10.87;;;3.20;99.90;;;;;;4999184;28;20249;-80
2022/04/17 06:06:41;;;;;;;20.63;12.13;;;3.20;99.90;;;;;;5000782;28;20781;-81
2022/04/17 06:09:08;;;;;;;18.37;11.77;;;3.30;99.90;;;;;;5007616;28;20238;-80
2022/04/17 06:11:35;;;;;;;17.97;10.83;;;3.40;99.90;;;;;;5006176;28;20289;-86
2022/04/17 06:14:02;;;;;;;16.50;11.53;;;3.50;99.90;;;;;;5007598;28;20946;-81
2022/04/17 06:16:29;;;;;;;19.67;13.53;;;3.60;99.90;;;;;;5008048;28;20293;-85
2022/04/17 06:18:56;;;;;;;23.87;14.50;;;3.70;99.90;;;;;;5005090;28;20206;-83
2022/04/17 06:21:24;;;;;;;22.53;14.47;;;3.90;99.90;;;;;;5000965;28;20323;-86
2022/04/17 06:23:50;;;;;;;19.87;12.20;;;5.00;99.90;;;;;;5005487;28;20573;-83
2022/04/17 06:26:17;;;;;;;17.10;10.53;;;6.50;99.90;;;;;;4999736;28;20306;-82
2022/04/17 06:28:44;;;;;;;12.70;9.17;;;8.20;99.90;;;;;;5002927;28;20214;-82
2022/04/17 06:31:11;;;;;;;15.03;8.30;;;9.80;99.90;;;;;;5002394;28;20294;-83
2022/04/17 06:33:38;;;;;;;12.20;8.47;;;11.20;99.90;;;;;;5001582;28;20781;-84
2022/04/17 06:36:05;;;;;;;12.27;8.20;;;12.60;99.90;;;;;;5003356;28;20285;-85
2022/04/17 06:38:36;;;;;;;11.67;7.97;;;13.90;99.90;;;;;;5007018;28;20699;-87
2022/04/17 06:41:03;;;;;;;11.30;8.00;;;14.90;99.90;;;;;;4996960;28;20234;-87
2022/04/17 06:43:29;;;;;;;10.52;7.50;;;15.70;99.90;;;;;;5009605;28;20302;-87
2022/04/17 06:45:56;;;;;;;9.80;7.95;;;16.50;99.90;;;;;;5006641;28;20230;-86
2022/04/17 06:48:25;;;;;;;12.07;7.97;;;17.00;99.90;;;;;;5001771;28;20229;-87
2022/04/17 06:50:53;;;;;;;10.40;7.47;;;17.50;99.90;;;;;;5003127;28;20209;-87
2022/04/17 06:53:20;;;;;;;10.10;7.70;;;18.40;99.90;;;;;;5000071;28;20214;-87
2022/04/17 06:55:48;;;;;;;12.07;7.43;;;18.40;99.90;;;;;;5009160;28;20202;-87
2022/04/17 06:58:19;;;;;;;9.32;7.60;;;19.10;99.90;;;;;;5001741;28;20318;-89
2022/04/17 07:00:46;;;;;;;10.93;7.50;;;19.60;97.70;;;;;;5004144;28;20242;-89
2022/04/17 07:03:17;;;;;;;8.10;6.85;;;20.10;95.30;;;;;;4999509;28;20210;-87
2022/04/17 07:05:44;;;;;;;10.52;7.63;;;20.30;92.50;;;;;;5017062;28;20278;-88
2022/04/17 07:08:11;;;;;;;9.55;7.05;;;20.30;91.00;;;;;;5024595;28;20285;-87
2022/04/17 07:10:40;;;;;;;10.00;7.70;;;20.50;90.30;;;;;;5013360;28;20216;-89
2022/04/17 07:13:11;;;;;;;11.70;8.23;;;20.90;87.10;;;;;;5032227;28;20190;-91
2022/04/17 07:15:45;;;;;;;9.50;7.43;;;21.00;82.90;;;;;;5017271;28;20202;-88
2022/04/17 07:18:19;;;;;;;10.63;7.20;;;21.00;81.50;;;;;;5010939;28;20195;-90
2022/04/17 07:20:56;;;;;;;11.05;7.22;;;21.00;78.40;;;;;;5018979;28;20231;-90
2022/04/17 07:23:24;;;;;;;9.43;6.95;;;20.80;75.60;;;;;;5018545;28;20280;-89
2022/04/17 07:25:53;;;;;;;11.23;6.70;;;20.50;77.40;;;;;;5022874;28;20277;-88
2022/04/17 07:28:20;;;;;;;10.50;7.57;;;20.40;77.00;;;;;;5016739;28;20206;-90
2022/04/17 07:30:55;;;;;;;8.48;6.55;;;20.50;76.10;;;;;;5022868;28;20275;-89
2022/04/17 07:33:31;;;;;;;7.03;6.00;;;20.50;73.60;;;;;;5019889;28;20205;-88
2022/04/17 07:35:59;;;;;;;8.27;5.80;;;20.60;71.90;;;;;;5018733;28;20202;-91
2022/04/17 07:38:32;;;;;;;8.45;6.32;;;20.50;72.10;;;;;;5016095;28;20286;-89
2022/04/17 07:41:09;;;;;;;9.55;6.90;;;20.40;73.50;;;;;;5031349;28;20203;-88
2022/04/17 07:43:40;;;;;;;7.25;5.75;;;20.70;71.70;;;;;;5023654;28;20203;-88
2022/04/17 07:46:11;;;;;;;7.45;5.78;;;20.80;71.30;;;;;;5024054;28;20241;-90
2022/04/17 07:48:40;;;;;;;8.30;6.25;;;21.00;71.20;;;;;;5025749;28;20215;-89
2022/04/17 07:51:07;;;;;;;6.55;5.45;;;21.20;69.80;;;;;;5021976;28;20614;-91
2022/04/17 07:53:34;;;;;;;7.05;5.60;;;21.20;68.90;;;;;;5009149;28;20215;-87
2022/04/17 07:56:02;;;;;;;8.63;5.97;;;21.00;67.40;;;;;;5011476;28;20539;-89
2022/04/17 07:58:34;;;;;;;6.95;5.63;;;20.80;67.90;;;;;;5009227;28;20218;-88
2022/04/17 08:01:14;;;;;;;7.90;5.90;;;20.90;68.30;;;;;;5002126;28;20213;-89
2022/04/17 08:06:15;;;;;;;7.72;5.75;;;21.20;66.50;;;;;;5008455;28;20229;-86
2022/04/17 08:08:52;;;;;;;7.00;5.60;;;21.10;65.40;;;;;;5009824;28;20294;-88
2022/04/17 08:11:23;;;;;;;6.65;5.45;;;20.70;65.00;;;;;;4993470;28;20265;-88
2022/04/17 08:13:51;;;;;;;7.18;5.90;;;20.60;65.60;;;;;;5003385;28;20207;-87
2022/04/17 08:16:23;;;;;;;9.25;5.82;;;20.50;65.60;;;;;;5023929;28;20292;-89
2022/04/17 08:18:50;;;;;;;7.03;5.75;;;20.30;65.50;;;;;;5023183;28;20210;-90
2022/04/17 08:21:18;;;;;;;6.38;5.50;;;20.50;67.00;;;;;;5024326;28;20214;-88
2022/04/17 08:23:44;;;;;;;7.60;5.60;;;20.00;66.10;;;;;;5025012;28;20571;-87
2022/04/17 08:26:12;;;;;;;8.07;5.72;;;20.00;65.60;;;;;;5020572;28;20218;-88
2022/04/17 08:28:41;;;;;;;8.00;5.57;;;20.00;65.70;;;;;;5016244;28;20226;-88
2022/04/17 08:31:10;;;;;;;6.93;5.35;;;20.90;68.30;;;;;;5007260;28;20199;-90
2022/04/17 08:33:49;;;;;;;7.38;5.32;;;20.20;65.80;;;;;;5020724;28;20267;-91
2022/04/17 08:36:18;;;;;;;7.10;5.28;;;20.30;66.70;;;;;;5025722;28;20284;-91
2022/04/17 08:38:49;;;;;;;5.97;5.15;;;20.40;66.80;;;;;;5017400;28;20234;-91
2022/04/17 08:41:23;;;;;;;6.82;5.07;;;19.80;66.40;;;;;;5021850;28;20209;-90
2022/04/17 08:43:52;;;;;;;7.38;4.53;;;19.90;66.20;;;;;;5029052;28;20210;-89
2022/04/17 08:46:27;;;;;;;8.85;5.38;;;20.40;67.00;;;;;;5025062;28;20230;-91
2022/04/17 08:48:59;;;;;;;8.40;5.13;;;20.00;66.50;;;;;;5020592;28;20935;-88
2022/04/17 08:51:31;;;;;;;8.63;5.40;;;19.80;66.20;;;;;;5029615;28;20199;-89
2022/04/17 08:54:00;;;;;;;6.72;5.20;;;19.80;66.90;;;;;;5030423;28;20202;-88
2022/04/17 08:56:49;;;;;;;7.25;5.25;;;19.90;65.30;;;;;;5031281;28;20202;-89
2022/04/17 08:59:20;;;;;;;8.02;5.30;;;20.50;65.30;;;;;;5039790;28;20203;-89
2022/04/17 09:01:47;;;;;;;7.60;5.30;;;20.90;67.60;;;;;;5030232;28;20234;-88
2022/04/17 09:04:24;;;;;;;7.25;5.32;;;20.10;67.70;;;;;;5018999;28;20272;-91
2022/04/17 09:06:58;;;;;;;7.40;4.80;;;19.90;67.00;;;;;;5031906;28;20276;-89
2022/04/17 09:09:39;;;;;;;8.40;4.88;;;20.20;66.80;;;;;;5031053;28;20206;-91
2022/04/17 09:12:23;;;;;;;7.75;5.10;;;19.60;65.50;;;;;;5027042;28;20241;-91
2022/04/17 09:14:55;;;;;;;5.75;4.80;;;19.90;64.40;;;;;;5025075;28;20202;-89
2022/04/17 09:17:35;;;;;;;5.47;4.80;;;20.20;74.00;;;;;;5030636;28;20206;-91
2022/04/17 09:20:24;;;;;;;7.93;5.18;;;20.30;82.30;;;;;;5029893;28;20227;-91
2022/04/17 09:22:59;;;;;;;6.47;4.95;;;18.90;68.40;;;;;;5017277;28;20314;-90
2022/04/17 09:25:29;;;;;;;5.88;4.53;;;18.80;67.50;;;;;;5033979;28;20209;-90
2022/04/17 09:28:16;;;;;;;9.13;4.90;;;20.70;72.00;;;;;;5026126;28;20217;-89
2022/04/17 09:31:02;;;;;;;7.30;4.70;;;19.50;70.40;;;;;;5034667;28;20187;-91
2022/04/17 09:33:50;;;;;;;7.97;5.03;;;19.70;68.50;;;;;;5022196;28;20198;-89
2022/04/17 09:36:33;;;;;;;7.90;4.88;;;20.30;70.80;;;;;;5025286;28;20255;-91
2022/04/17 09:39:21;;;;;;;6.03;4.85;;;20.00;70.30;;;;;;5033273;28;20244;-89
2022/04/17 09:41:58;;;;;;;6.80;4.93;;;20.50;71.50;;;;;;5017631;28;20315;-90
2022/04/17 09:44:36;;;;;;;5.93;4.82;;;19.70;67.30;;;;;;5010752;28;20259;-89
2022/04/17 09:47:09;;;;;;;5.97;4.72;;;20.00;68.90;;;;;;5020112;28;20219;-90
2022/04/17 09:50:13;;;;;;;8.10;5.43;;;20.20;70.30;;;;;;5029044;28;20293;-88
2022/04/17 09:52:54;;;;;;;7.13;5.32;;;19.80;68.10;;;;;;5037883;28;20219;-90
2022/04/17 09:55:31;;;;;;;6.22;4.53;;;19.60;69.10;;;;;;5028251;28;20262;-90
2022/04/17 09:58:04;;;;;;;6.00;5.03;;;19.80;71.60;;;;;;5023725;28;20262;-89
2022/04/17 10:00:41;;;;;;;7.13;5.60;;;21.00;71.70;;;;;;5023697;28;20292;-88
2022/04/17 10:03:10;;;;;;;7.72;5.47;;;19.50;67.20;;;;;;5020325;28;20214;-88
2022/04/17 10:05:38;;;;;;;6.50;4.78;;;18.90;67.20;;;;;;5005116;28;20203;-89
2022/04/17 10:08:08;;;;;;;7.00;4.88;;;20.50;68.40;;;;;;5018633;28;20581;-89
2022/04/17 10:10:35;;;;;;;5.72;4.60;;;19.30;69.60;;;;;;5020735;28;20305;-90
2022/04/17 10:13:03;;;;;;;6.32;4.70;;;19.10;74.30;;;;;;5016559;28;20600;-88
2022/04/17 10:15:30;;;;;;;6.85;4.32;;;19.40;78.40;;;;;;5010807;28;20607;-88
2022/04/17 10:17:59;;;;;;;5.93;4.30;;;18.50;78.30;;;;;;5013898;28;20209;-88
2022/04/17 10:20:28;;;;;;;5.45;4.45;;;20.00;78.30;;;;;;5009064;28;20262;-91
2022/04/17 10:23:03;;;;;;;5.45;4.88;;;19.10;76.80;;;;;;5016968;28;20224;-88
2022/04/17 10:25:33;;;;;;;6.60;4.90;;;20.00;80.50;;;;;;5012830;28;20205;-87
2022/04/17 10:28:04;;;;;;;7.97;4.80;;;19.40;81.90;;;;;;5011037;28;20319;-86
2022/04/17 10:31:03;;;;;;;5.97;4.65;;;18.90;81.40;;;;;;5020408;28;20203;-87
2022/04/17 10:33:48;;;;;;;5.45;4.65;;;19.30;79.80;;;;;;5011505;28;20289;-90
2022/04/17 10:36:54;;;;;;;4.90;4.43;;;19.20;80.40;;;;;;5000474;28;20608;-89
2022/04/17 10:39:47;;;;;;;5.93;4.63;;;19.10;79.50;;;;;;5001267;28;20206;-87
2022/04/17 10:42:17;;;;;;;6.10;4.20;;;19.10;78.90;;;;;;5012449;28;20605;-90
2022/04/17 10:45:04;;;;;;;8.10;4.35;;;18.60;78.70;;;;;;5015356;28;20226;-82
2022/04/17 10:47:31;;;;;;;8.52;4.85;;;19.30;76.30;;;;;;5001721;28;20231;-83
2022/04/17 10:50:10;;;;;;;7.80;4.82;;;20.40;66.60;;;;;;5010719;28;20194;-89
2022/04/17 10:52:41;;;;;;;9.07;5.20;;;18.80;65.40;;;;;;5018917;28;20241;-89
2022/04/17 10:55:15;;;;;;;8.73;4.88;;;18.80;65.80;;;;;;5016659;28;20210;-89
2022/04/17 10:57:46;;;;;;;6.65;4.55;;;18.90;66.10;;;;;;5015510;28;20252;-88
2022/04/17 11:00:32;;;;;;;5.30;4.50;;;18.80;65.00;;;;;;5017735;28;20196;-89
2022/04/17 11:03:22;;;;;;;7.57;4.53;;;18.80;65.30;;;;;;5013932;28;20203;-93
2022/04/17 11:06:13;;;;;;;6.30;4.35;;;18.90;65.30;;;;;;5010717;28;20257;-90
2022/04/17 11:08:56;;;;;;;5.45;4.40;;;19.00;65.00;;;;;;5011373;28;20222;-87
2022/04/17 11:11:35;;;;;;;6.03;4.68;;;19.00;65.10;;;;;;5009268;28;20310;-90
2022/04/17 11:14:19;;;;;;;6.57;3.95;;;18.90;64.50;;;;;;5013678;28;20198;-89
2022/04/17 11:17:00;;;;;;;5.47;4.57;;;18.90;64.00;;;;;;5008856;28;20214;-91
2022/04/17 11:19:33;;;;;;;9.00;5.10;;;18.80;64.60;;;;;;5024795;28;20321;-88
2022/04/17 11:22:07;;;;;;;7.00;4.57;;;18.90;64.60;;;;;;5014109;28;20309;-90
2022/04/17 11:24:55;;;;;;;7.78;4.85;;;18.90;64.00;;;;;;5011118;28;20210;-91
2022/04/17 11:27:31;;;;;;;7.47;4.25;;;19.00;63.40;;;;;;5005335;28;20224;-89
2022/04/17 11:29:59;;;;;;;5.68;3.97;;;19.10;63.80;;;;;;5005571;28;20633;-87
2022/04/17 11:32:29;;;;;;;5.60;4.38;;;18.80;63.10;;;;;;5000030;28;20207;-89
2022/04/17 11:35:01;;;;;;;6.28;4.18;;;19.00;64.00;;;;;;4999834;28;20510;-89
2022/04/17 11:37:30;;;;;;;5.78;4.10;;;19.10;64.80;;;;;;5002767;28;20210;-91
2022/04/17 11:40:08;;;;;;;5.97;4.37;;;19.10;64.50;;;;;;5001949;28;20202;-88
2022/04/17 11:42:45;;;;;;;5.80;4.10;;;19.10;64.60;;;;;;5004340;28;20289;-90
2022/04/17 11:45:14;;;;;;;5.95;3.97;;;19.10;65.30;;;;;;5014448;28;20285;-89
2022/04/17 11:47:45;;;;;;;3.95;3.55;;;19.20;64.80;;;;;;4999831;28;20226;-90
2022/04/17 11:50:20;;;;;;;6.88;4.53;;;19.30;63.30;;;;;;5001485;28;20818;-90
2022/04/17 11:52:51;;;;;;;5.20;3.35;;;19.40;60.90;;;;;;4978855;28;20215;-88
2022/04/17 11:55:24;;;;;;;5.40;3.30;;;19.40;59.50;;;;;;5004076;28;20650;-89
2022/04/17 11:57:51;;;;;;;3.90;3.20;;;19.40;59.10;;;;;;5004665;28;20234;-89
2022/04/17 12:00:18;;;;;;;4.00;3.60;;;19.50;59.20;;;;;;5004285;28;20657;-86
2022/04/17 12:02:45;;;;;;;3.75;3.40;;;19.50;59.20;;;;;;5006033;28;20618;-88
2022/04/17 12:05:17;;;;;;;6.57;4.50;;;19.60;59.00;;;;;;5006387;28;20207;-89
2022/04/17 12:07:44;;;;;;;5.47;3.63;;;19.70;59.10;;;;;;5002026;28;20340;-88
2022/04/17 12:10:14;;;;;;;6.43;3.88;;;19.70;59.80;;;;;;5002256;28;20588;-88
2022/04/17 12:12:44;;;;;;;4.35;3.75;;;19.80;59.80;;;;;;5004118;28;20210;-87
2022/04/17 12:15:18;;;;;;;4.55;3.70;;;19.70;60.00;;;;;;5002869;28;20214;-88
2022/04/17 12:17:45;;;;;;;4.97;3.25;;;19.70;59.40;;;;;;4995976;28;20206;-90
2022/04/17 12:20:15;;;;;;;4.95;3.65;;;19.70;59.50;;;;;;5000525;28;20764;-89
2022/04/17 12:22:42;;;;;;;5.90;3.83;;;19.90;59.70;;;;;;4994509;28;20325;-88
2022/04/17 12:25:25;;;;;;;5.07;3.70;;;20.00;59.50;;;;;;5002878;28;20301;-87
2022/04/17 12:27:54;;;;;;;4.97;3.78;;;20.00;60.00;;;;;;5002392;28;20284;-88
2022/04/17 12:30:24;;;;;;;7.93;4.00;;;20.00;60.20;;;;;;5001774;28;20284;-89
2022/04/17 12:32:55;;;;;;;4.82;3.85;;;20.00;60.40;;;;;;5002839;28;20198;-86
2022/04/17 12:35:27;;;;;;;4.53;4.05;;;19.90;60.60;;;;;;5008398;28;20218;-86
2022/04/17 12:38:05;;;;;;;5.75;4.25;;;19.80;60.40;;;;;;5008342;28;20253;-87
2022/04/17 12:40:44;;;;;;;5.97;4.35;;;19.80;60.30;;;;;;5016195;28;20203;-88
2022/04/17 12:43:17;;;;;;;4.18;3.75;;;19.80;59.70;;;;;;5016267;28;20206;-88
2022/04/17 12:46:06;;;;;;;4.80;3.95;;;20.10;58.80;;;;;;5007204;28;20261;-87
2022/04/17 12:48:35;;;;;;;4.80;3.88;;;20.00;59.40;;;;;;5004008;28;20230;-89
2022/04/17 12:51:05;;;;;;;5.53;4.07;;;20.00;59.10;;;;;;5009939;28;20658;-87
2022/04/17 12:53:37;;;;;;;6.75;4.45;;;20.10;59.20;;;;;;5006191;28;20346;-86
2022/04/17 12:56:06;;;;;;;5.25;4.15;;;20.20;59.20;;;;;;5015419;28;20199;-89
2022/04/17 12:58:55;;;;;;;5.32;4.22;;;20.30;59.20;;;;;;5012221;28;20587;-86
2022/04/17 13:01:24;;;;;;;5.50;4.15;;;20.40;59.10;;;;;;4999439;28;20202;-87
2022/04/17 13:04:11;;;;;;;6.43;3.67;;;20.50;59.30;;;;;;5004334;28;20209;-89
2022/04/17 13:06:39;;;;;;;5.90;3.92;;;20.50;58.50;;;;;;5001574;28;20257;-86
2022/04/17 13:09:12;;;;;;;5.03;4.53;;;20.40;58.20;;;;;;5004402;28;20362;-89
2022/04/17 13:11:44;;;;;;;4.75;4.20;;;20.30;59.10;;;;;;4999864;28;20214;-87
2022/04/17 13:14:11;;;;;;;4.68;4.07;;;20.10;59.00;;;;;;5004642;28;20233;-88
2022/04/17 13:16:52;;;;;;;6.63;4.22;;;20.10;59.40;;;;;;4998196;28;20309;-88
2022/04/17 13:19:22;;;;;;;5.78;4.82;;;20.00;58.10;;;;;;5003977;28;20282;-86